sensor_id;sensor_type;location;lat;lon;timestamp;P1;durP1;ratioP1;P2;durP2;ratioP2
69953;SDS011;57276;51.364;12.376;2022-09-03T00:00:14;3.83;;;1.48;;
69953;SDS011;57276;51.364;12.376;2022-09-03T00:12:25;3.28;;;1.25;;
69953;SDS011;57276;51.364;12.376;2022-09-03T00:18:29;3.22;;;1.35;;
69953;SDS011;57276;51.364;12.376;2022-09-03T00:24:33;2.93;;;1.30;;
69953;SDS011;57276;51.364;12.376;2022-09-03T00:30:35;6.20;;;1.50;;
69953;SDS011;57276;51.364;12.376;2022-09-03T00:36:39;4.43;;;1.53;;
69953;SDS011;57276;51.364;12.376;2022-09-03T00:43:01;3.53;;;1.33;;
69953;SDS011;57276;51.364;12.376;2022-09-03T00:49:11;5.00;;;1.58;;
69953;SDS011;57276;51.364;12.376;2022-09-03T01:01:48;3.83;;;1.60;;
69953;SDS011;57276;51.364;12.376;2022-09-03T01:07:56;4.70;;;1.67;;
69953;SDS011;57276;51.364;12.376;2022-09-03T01:14:15;4.30;;;1.48;;
69953;SDS011;57276;51.364;12.376;2022-09-03T01:39:00;3.83;;;1.60;;
69953;SDS011;57276;51.364;12.376;2022-09-03T01:51:24;3.80;;;1.58;;
69953;SDS011;57276;51.364;12.376;2022-09-03T02:03:38;3.90;;;1.60;;
69953;SDS011;57276;51.364;12.376;2022-09-03T02:09:41;3.63;;;1.33;;
69953;SDS011;57276;51.364;12.376;2022-09-03T02:15:43;4.20;;;1.70;;
69953;SDS011;57276;51.364;12.376;2022-09-03T02:21:52;8.13;;;2.47;;
69953;SDS011;57276;51.364;12.376;2022-09-03T02:27:55;5.00;;;1.90;;
69953;SDS011;57276;51.364;12.376;2022-09-03T02:33:57;4.80;;;1.75;;
69953;SDS011;57276;51.364;12.376;2022-09-03T02:39:59;4.83;;;1.70;;
69953;SDS011;57276;51.364;12.376;2022-09-03T02:46:01;4.78;;;1.92;;
69953;SDS011;57276;51.364;12.376;2022-09-03T02:52:04;7.38;;;1.88;;
69953;SDS011;57276;51.364;12.376;2022-09-03T02:58:07;3.80;;;1.53;;
69953;SDS011;57276;51.364;12.376;2022-09-03T03:04:09;3.22;;;1.55;;
69953;SDS011;57276;51.364;12.376;2022-09-03T03:10:10;4.87;;;2.00;;
69953;SDS011;57276;51.364;12.376;2022-09-03T03:16:13;4.45;;;1.83;;
69953;SDS011;57276;51.364;12.376;2022-09-03T03:22:15;3.60;;;1.70;;
69953;SDS011;57276;51.364;12.376;2022-09-03T03:28:17;6.00;;;1.80;;
69953;SDS011;57276;51.364;12.376;2022-09-03T03:34:19;8.40;;;2.00;;
69953;SDS011;57276;51.364;12.376;2022-09-03T03:40:20;5.30;;;1.80;;
69953;SDS011;57276;51.364;12.376;2022-09-03T03:46:23;6.15;;;1.98;;
69953;SDS011;57276;51.364;12.376;2022-09-03T03:52:25;4.50;;;1.90;;
69953;SDS011;57276;51.364;12.376;2022-09-03T03:58:27;4.40;;;1.70;;
69953;SDS011;57276;51.364;12.376;2022-09-03T04:04:29;3.97;;;1.92;;
69953;SDS011;57276;51.364;12.376;2022-09-03T04:10:30;4.53;;;1.90;;
69953;SDS011;57276;51.364;12.376;2022-09-03T04:16:32;4.18;;;1.70;;
69953;SDS011;57276;51.364;12.376;2022-09-03T04:22:34;3.88;;;1.80;;
69953;SDS011;57276;51.364;12.376;2022-09-03T04:28:35;5.70;;;2.00;;
69953;SDS011;57276;51.364;12.376;2022-09-03T04:34:38;4.30;;;2.10;;
69953;SDS011;57276;51.364;12.376;2022-09-03T04:40:39;3.90;;;1.90;;
69953;SDS011;57276;51.364;12.376;2022-09-03T04:46:40;4.50;;;2.10;;
69953;SDS011;57276;51.364;12.376;2022-09-03T04:52:42;5.18;;;2.00;;
69953;SDS011;57276;51.364;12.376;2022-09-03T04:58:44;6.20;;;1.90;;
69953;SDS011;57276;51.364;12.376;2022-09-03T05:04:45;4.18;;;1.90;;
69953;SDS011;57276;51.364;12.376;2022-09-03T05:10:47;4.17;;;2.10;;
69953;SDS011;57276;51.364;12.376;2022-09-03T05:16:55;3.78;;;1.83;;
69953;SDS011;57276;51.364;12.376;2022-09-03T05:22:59;3.90;;;1.90;;
69953;SDS011;57276;51.364;12.376;2022-09-03T05:29:02;6.37;;;2.10;;
69953;SDS011;57276;51.364;12.376;2022-09-03T05:35:08;7.75;;;1.80;;
69953;SDS011;57276;51.364;12.376;2022-09-03T05:41:11;3.80;;;1.70;;
69953;SDS011;57276;51.364;12.376;2022-09-03T05:47:13;6.10;;;2.35;;
69953;SDS011;57276;51.364;12.376;2022-09-03T05:53:14;4.97;;;1.90;;
69953;SDS011;57276;51.364;12.376;2022-09-03T05:59:18;4.80;;;2.10;;
69953;SDS011;57276;51.364;12.376;2022-09-03T06:05:20;5.43;;;2.20;;
69953;SDS011;57276;51.364;12.376;2022-09-03T06:11:21;6.13;;;2.10;;
69953;SDS011;57276;51.364;12.376;2022-09-03T06:17:28;6.65;;;3.03;;
69953;SDS011;57276;51.364;12.376;2022-09-03T06:23:30;4.55;;;2.03;;
69953;SDS011;57276;51.364;12.376;2022-09-03T06:29:32;5.30;;;2.20;;
69953;SDS011;57276;51.364;12.376;2022-09-03T06:35:34;4.57;;;2.10;;
69953;SDS011;57276;51.364;12.376;2022-09-03T06:41:43;3.87;;;2.00;;
69953;SDS011;57276;51.364;12.376;2022-09-03T06:47:45;6.13;;;2.10;;
69953;SDS011;57276;51.364;12.376;2022-09-03T06:53:47;5.50;;;2.00;;
69953;SDS011;57276;51.364;12.376;2022-09-03T06:59:49;6.00;;;2.00;;
69953;SDS011;57276;51.364;12.376;2022-09-03T07:05:51;7.07;;;1.70;;
69953;SDS011;57276;51.364;12.376;2022-09-03T07:11:53;4.63;;;2.10;;
69953;SDS011;57276;51.364;12.376;2022-09-03T07:17:54;4.25;;;1.80;;
69953;SDS011;57276;51.364;12.376;2022-09-03T07:23:56;4.40;;;1.70;;
69953;SDS011;57276;51.364;12.376;2022-09-03T07:29:57;4.50;;;2.00;;
69953;SDS011;57276;51.364;12.376;2022-09-03T07:36:06;4.60;;;1.90;;
69953;SDS011;57276;51.364;12.376;2022-09-03T07:42:08;6.70;;;1.80;;
69953;SDS011;57276;51.364;12.376;2022-09-03T07:48:11;4.35;;;1.67;;
69953;SDS011;57276;51.364;12.376;2022-09-03T07:54:13;4.45;;;1.80;;
69953;SDS011;57276;51.364;12.376;2022-09-03T08:00:14;4.70;;;1.80;;
69953;SDS011;57276;51.364;12.376;2022-09-03T08:06:18;6.63;;;1.67;;
69953;SDS011;57276;51.364;12.376;2022-09-03T08:12:20;5.20;;;1.50;;
69953;SDS011;57276;51.364;12.376;2022-09-03T08:18:22;5.78;;;1.60;;
69953;SDS011;57276;51.364;12.376;2022-09-03T08:24:25;5.28;;;1.70;;
69953;SDS011;57276;51.364;12.376;2022-09-03T08:30:27;4.93;;;1.90;;
69953;SDS011;57276;51.364;12.376;2022-09-03T08:36:29;6.00;;;2.00;;
69953;SDS011;57276;51.364;12.376;2022-09-03T08:42:46;4.57;;;1.90;;
69953;SDS011;57276;51.364;12.376;2022-09-03T08:48:49;3.95;;;1.80;;
69953;SDS011;57276;51.364;12.376;2022-09-03T08:54:54;4.70;;;1.70;;
69953;SDS011;57276;51.364;12.376;2022-09-03T09:01:03;4.17;;;1.80;;
69953;SDS011;57276;51.364;12.376;2022-09-03T09:13:13;4.07;;;1.67;;
69953;SDS011;57276;51.364;12.376;2022-09-03T09:19:26;6.45;;;2.58;;
69953;SDS011;57276;51.364;12.376;2022-09-03T09:25:33;4.75;;;1.60;;
69953;SDS011;57276;51.364;12.376;2022-09-03T09:31:40;5.90;;;1.80;;
69953;SDS011;57276;51.364;12.376;2022-09-03T09:43:58;3.80;;;1.63;;
69953;SDS011;57276;51.364;12.376;2022-09-03T09:50:02;4.60;;;2.08;;
69953;SDS011;57276;51.364;12.376;2022-09-03T09:56:04;5.63;;;1.80;;
69953;SDS011;57276;51.364;12.376;2022-09-03T10:02:08;4.37;;;1.60;;
69953;SDS011;57276;51.364;12.376;2022-09-03T10:08:18;5.53;;;1.92;;
69953;SDS011;57276;51.364;12.376;2022-09-03T10:14:26;5.53;;;1.67;;
69953;SDS011;57276;51.364;12.376;2022-09-03T10:20:39;4.00;;;1.60;;
69953;SDS011;57276;51.364;12.376;2022-09-03T10:26:44;9.23;;;1.58;;
69953;SDS011;57276;51.364;12.376;2022-09-03T10:39:03;3.60;;;1.60;;
69953;SDS011;57276;51.364;12.376;2022-09-03T10:51:23;3.90;;;1.67;;
69953;SDS011;57276;51.364;12.376;2022-09-03T10:57:41;5.47;;;2.30;;
69953;SDS011;57276;51.364;12.376;2022-09-03T11:03:47;4.57;;;1.73;;
69953;SDS011;57276;51.364;12.376;2022-09-03T11:16:17;3.87;;;1.70;;
69953;SDS011;57276;51.364;12.376;2022-09-03T11:22:19;4.00;;;1.73;;
69953;SDS011;57276;51.364;12.376;2022-09-03T11:28:30;4.32;;;1.65;;
69953;SDS011;57276;51.364;12.376;2022-09-03T11:34:46;5.00;;;1.73;;
69953;SDS011;57276;51.364;12.376;2022-09-03T11:40:58;3.05;;;1.58;;
69953;SDS011;57276;51.364;12.376;2022-09-03T11:47:01;3.97;;;1.73;;
69953;SDS011;57276;51.364;12.376;2022-09-03T12:05:23;3.73;;;1.90;;
69953;SDS011;57276;51.364;12.376;2022-09-03T12:11:32;5.10;;;1.73;;
69953;SDS011;57276;51.364;12.376;2022-09-03T12:24:20;4.75;;;1.70;;
69953;SDS011;57276;51.364;12.376;2022-09-03T12:30:23;5.57;;;2.28;;
69953;SDS011;57276;51.364;12.376;2022-09-03T12:36:34;5.63;;;1.70;;
69953;SDS011;57276;51.364;12.376;2022-09-03T12:42:37;4.30;;;2.08;;
69953;SDS011;57276;51.364;12.376;2022-09-03T12:48:38;4.30;;;2.23;;
69953;SDS011;57276;51.364;12.376;2022-09-03T12:54:57;4.65;;;2.58;;
69953;SDS011;57276;51.364;12.376;2022-09-03T13:01:07;4.85;;;2.50;;
69953;SDS011;57276;51.364;12.376;2022-09-03T13:07:23;5.00;;;2.60;;
69953;SDS011;57276;51.364;12.376;2022-09-03T13:13:35;3.80;;;2.63;;
69953;SDS011;57276;51.364;12.376;2022-09-03T13:19:56;4.80;;;2.93;;
69953;SDS011;57276;51.364;12.376;2022-09-03T13:26:05;3.65;;;2.40;;
69953;SDS011;57276;51.364;12.376;2022-09-03T13:44:42;3.88;;;2.40;;
69953;SDS011;57276;51.364;12.376;2022-09-03T13:50:47;4.93;;;2.30;;
69953;SDS011;57276;51.364;12.376;2022-09-03T13:56:58;3.70;;;2.40;;
69953;SDS011;57276;51.364;12.376;2022-09-03T14:03:06;4.57;;;2.05;;
69953;SDS011;57276;51.364;12.376;2022-09-03T14:09:25;3.63;;;1.77;;
69953;SDS011;57276;51.364;12.376;2022-09-03T14:15:35;5.57;;;2.13;;
69953;SDS011;57276;51.364;12.376;2022-09-03T14:22:05;4.70;;;1.87;;
69953;SDS011;57276;51.364;12.376;2022-09-03T14:41:12;3.80;;;2.07;;
69953;SDS011;57276;51.364;12.376;2022-09-03T15:00:16;3.30;;;2.00;;
69953;SDS011;57276;51.364;12.376;2022-09-03T15:12:39;4.37;;;2.10;;
69953;SDS011;57276;51.364;12.376;2022-09-03T15:18:47;4.13;;;2.00;;
69953;SDS011;57276;51.364;12.376;2022-09-03T15:30:57;3.60;;;2.10;;
69953;SDS011;57276;51.364;12.376;2022-09-03T15:37:01;5.03;;;2.42;;
69953;SDS011;57276;51.364;12.376;2022-09-03T15:43:24;6.07;;;2.10;;
69953;SDS011;57276;51.364;12.376;2022-09-03T15:49:34;5.72;;;1.90;;
69953;SDS011;57276;51.364;12.376;2022-09-03T15:55:38;4.17;;;1.70;;
69953;SDS011;57276;51.364;12.376;2022-09-03T16:01:47;3.95;;;2.20;;
69953;SDS011;57276;51.364;12.376;2022-09-03T16:20:17;3.53;;;1.80;;
69953;SDS011;57276;51.364;12.376;2022-09-03T16:26:36;6.17;;;2.00;;
69953;SDS011;57276;51.364;12.376;2022-09-03T16:32:56;3.10;;;1.83;;
69953;SDS011;57276;51.364;12.376;2022-09-03T16:39:11;3.60;;;1.90;;
69953;SDS011;57276;51.364;12.376;2022-09-03T16:45:27;5.50;;;2.90;;
69953;SDS011;57276;51.364;12.376;2022-09-03T16:57:36;6.37;;;2.20;;
69953;SDS011;57276;51.364;12.376;2022-09-03T17:03:52;5.85;;;2.00;;
69953;SDS011;57276;51.364;12.376;2022-09-03T17:16:18;4.13;;;2.10;;
69953;SDS011;57276;51.364;12.376;2022-09-03T17:28:53;5.77;;;2.80;;
69953;SDS011;57276;51.364;12.376;2022-09-03T17:47:46;5.40;;;2.80;;
69953;SDS011;57276;51.364;12.376;2022-09-03T17:53:51;8.18;;;3.20;;
69953;SDS011;57276;51.364;12.376;2022-09-03T18:00:03;5.90;;;2.87;;
69953;SDS011;57276;51.364;12.376;2022-09-03T18:19:06;5.27;;;3.00;;
69953;SDS011;57276;51.364;12.376;2022-09-03T18:25:08;5.25;;;3.10;;
69953;SDS011;57276;51.364;12.376;2022-09-03T18:31:31;5.87;;;2.83;;
69953;SDS011;57276;51.364;12.376;2022-09-03T18:37:51;6.38;;;3.45;;
69953;SDS011;57276;51.364;12.376;2022-09-03T18:50:47;6.30;;;3.40;;
69953;SDS011;57276;51.364;12.376;2022-09-03T18:57:31;9.43;;;3.28;;
69953;SDS011;57276;51.364;12.376;2022-09-03T19:04:00;6.37;;;3.20;;
69953;SDS011;57276;51.364;12.376;2022-09-03T19:10:33;8.85;;;3.25;;
69953;SDS011;57276;51.364;12.376;2022-09-03T19:16:59;6.68;;;3.60;;
69953;SDS011;57276;51.364;12.376;2022-09-03T19:23:21;6.83;;;3.83;;
69953;SDS011;57276;51.364;12.376;2022-09-03T19:29:46;6.53;;;3.83;;
69953;SDS011;57276;51.364;12.376;2022-09-03T19:36:25;7.67;;;3.33;;
69953;SDS011;57276;51.364;12.376;2022-09-03T19:42:58;6.13;;;3.83;;
69953;SDS011;57276;51.364;12.376;2022-09-03T19:49:42;6.82;;;3.65;;
69953;SDS011;57276;51.364;12.376;2022-09-03T19:56:09;6.43;;;3.40;;
69953;SDS011;57276;51.364;12.376;2022-09-03T20:02:31;6.18;;;3.42;;
69953;SDS011;57276;51.364;12.376;2022-09-03T20:08:54;8.80;;;3.53;;
69953;SDS011;57276;51.364;12.376;2022-09-03T20:15:16;6.45;;;3.15;;
69953;SDS011;57276;51.364;12.376;2022-09-03T20:27:37;8.37;;;3.83;;
69953;SDS011;57276;51.364;12.376;2022-09-03T20:33:53;5.80;;;3.60;;
69953;SDS011;57276;51.364;12.376;2022-09-03T20:40:16;6.97;;;3.63;;
69953;SDS011;57276;51.364;12.376;2022-09-03T20:52:49;7.60;;;3.85;;
69953;SDS011;57276;51.364;12.376;2022-09-03T20:59:02;9.50;;;3.60;;
69953;SDS011;57276;51.364;12.376;2022-09-03T21:05:18;9.07;;;5.15;;
69953;SDS011;57276;51.364;12.376;2022-09-03T21:17:39;7.93;;;3.95;;
69953;SDS011;57276;51.364;12.376;2022-09-03T21:23:44;7.88;;;3.80;;
69953;SDS011;57276;51.364;12.376;2022-09-03T21:29:52;6.83;;;4.20;;
69953;SDS011;57276;51.364;12.376;2022-09-03T21:36:05;6.65;;;3.55;;
69953;SDS011;57276;51.364;12.376;2022-09-03T21:42:12;8.43;;;4.10;;
69953;SDS011;57276;51.364;12.376;2022-09-03T21:48:25;5.85;;;3.60;;
69953;SDS011;57276;51.364;12.376;2022-09-03T21:54:29;6.03;;;3.72;;
69953;SDS011;57276;51.364;12.376;2022-09-03T22:00:31;7.00;;;3.60;;
69953;SDS011;57276;51.364;12.376;2022-09-03T22:06:45;7.50;;;3.97;;
69953;SDS011;57276;51.364;12.376;2022-09-03T22:18:50;6.30;;;3.47;;
69953;SDS011;57276;51.364;12.376;2022-09-03T22:25:02;7.15;;;3.53;;
69953;SDS011;57276;51.364;12.376;2022-09-03T22:31:09;7.33;;;3.67;;
69953;SDS011;57276;51.364;12.376;2022-09-03T22:37:17;6.80;;;3.33;;
69953;SDS011;57276;51.364;12.376;2022-09-03T22:55:26;10.50;;;3.53;;
69953;SDS011;57276;51.364;12.376;2022-09-03T23:01:28;6.83;;;3.63;;
69953;SDS011;57276;51.364;12.376;2022-09-03T23:07:38;6.45;;;3.65;;
69953;SDS011;57276;51.364;12.376;2022-09-03T23:13:44;6.93;;;3.70;;
69953;SDS011;57276;51.364;12.376;2022-09-03T23:19:55;8.35;;;3.78;;
69953;SDS011;57276;51.364;12.376;2022-09-03T23:26:13;7.57;;;3.80;;
69953;SDS011;57276;51.364;12.376;2022-09-03T23:32:16;6.20;;;3.67;;
69953;SDS011;57276;51.364;12.376;2022-09-03T23:57:03;6.82;;;3.67;;
